Mountain Home A F B, Idaho
Current Conditions -  °F | °C
As of 10:58 AM on Tuesday 21 Oct 2014 (Local Time) from KMUO Reporting Station
Broken Clouds Broken Clouds  
Wind Chill: 47°   Ceiling: 6000
Heat Index: 50°   Visibility: 10mi
Dew Point: 46°   Wind: 7mph
Humidity: 87%   Direction: 260°W
Pressure: 30.02"   Gusts: NA
Location:  43.0093°N, 115.5883°W
Report Text: KMUO 211658Z 26006KT 10SM SCT044 BKN060 BKN085 10/08 A3002 RMK RAE1609DZB1609E1616B1636E1645 SLP160 P0000 T00990078
Loading
Personal Weather Stations






























Interactive Weather Map
Tropical Storm Tracking
New forecast layout! Learn more

10-Day Weather Forecast

Advertisements
Track Severe Weather on mobile